Time;durP1;ratioP1;P1;durP2;ratioP2;P2;SDS_P1;SDS_P2;PMS_P1;PMS_P2;Temp;Humidity;BMP_temperature;BMP_pressure;BME280_temperature;BME280_humidity;BME280_pressure;Samples;Min_cycle;Max_cycle;Signal;HPM_P1;HPM_P2
2021/03/23 00:01:16;;;;;;;110.73;50.73;;;;;;;-1.99;67.55;97401.52;1852439;77;25863;-85
2021/03/23 00:03:47;;;;;;;118.42;47.50;;;;;;;-1.97;67.55;97403.55;1852175;77;26717;-84
2021/03/23 00:06:22;;;;;;;107.33;48.30;;;;;;;-1.96;67.62;97401.25;1852259;77;26270;-85
2021/03/23 00:08:55;;;;;;;121.15;52.27;;;;;;;-1.92;67.77;97393.86;1852116;77;25306;-85
2021/03/23 00:11:30;;;;;;;134.82;55.52;;;;;;;-1.90;67.68;97395.89;1851676;77;26747;-86
2021/03/23 00:14:00;;;;;;;128.40;53.63;;;;;;;-1.87;67.72;97399.12;1852130;77;25743;-85
2021/03/23 00:16:32;;;;;;;136.65;56.10;;;;;;;-1.86;67.85;97391.54;1842153;77;27612;-84
2021/03/23 00:19:00;;;;;;;126.70;51.10;;;;;;;-1.86;67.80;97391.54;1828807;77;32908;-85
2021/03/23 00:21:28;;;;;;;123.50;48.33;;;;;;;-1.86;67.83;97394.19;1828639;77;25713;-84
2021/03/23 00:23:57;;;;;;;113.47;45.73;;;;;;;-1.84;67.78;97386.95;1828747;77;25734;-87
2021/03/23 00:26:26;;;;;;;113.42;46.48;;;;;;;-1.81;67.72;97395.92;1828613;77;25919;-85
2021/03/23 00:28:56;;;;;;;102.12;44.33;;;;;;;-1.80;67.71;97398.08;1828602;78;27466;-85
2021/03/23 00:31:31;;;;;;;114.67;46.83;;;;;;;-1.79;67.75;97397.11;1828493;78;26180;-86
2021/03/23 00:34:02;;;;;;;121.85;50.08;;;;;;;-1.77;67.84;97395.66;1828638;77;25714;-87
2021/03/23 00:36:40;;;;;;;120.27;50.97;;;;;;;-1.83;67.85;97394.41;1838142;77;25723;-86
2021/03/23 00:39:11;;;;;;;107.55;49.50;;;;;;;-1.79;67.98;97394.47;1828704;78;25630;-85
2021/03/23 00:41:42;;;;;;;124.95;52.55;;;;;;;-1.74;67.95;97390.10;1828815;78;27471;-86
2021/03/23 00:44:12;;;;;;;121.35;51.58;;;;;;;-1.73;67.95;97394.42;1828582;78;25728;-86
2021/03/23 00:46:40;;;;;;;141.10;53.65;;;;;;;-1.73;67.94;97395.75;1828808;78;25724;-86
2021/03/23 00:49:07;;;;;;;150.35;60.75;;;;;;;-1.74;67.95;97389.62;1836881;77;25659;-85
2021/03/23 00:51:35;;;;;;;184.35;82.88;;;;;;;-1.73;68.03;97382.03;1832135;77;25696;-84
2021/03/23 00:54:02;;;;;;;153.65;60.23;;;;;;;-1.71;68.13;97392.48;1828754;77;28444;-86
2021/03/23 00:56:29;;;;;;;119.80;49.03;;;;;;;-1.71;68.10;97385.88;1828510;78;25684;-86
2021/03/23 00:58:57;;;;;;;125.30;49.40;;;;;;;-1.72;68.11;97383.70;1828683;77;25692;-86
2021/03/23 01:01:24;;;;;;;119.13;47.08;;;;;;;-1.71;68.10;97384.55;1828615;77;26207;-86
2021/03/23 01:03:51;;;;;;;106.25;42.17;;;;;;;-1.71;68.10;97383.22;1837663;77;25879;-91
2021/03/23 01:06:21;;;;;;;103.62;41.35;;;;;;;-1.72;68.06;97377.09;1852149;77;27577;-85
2021/03/23 01:08:48;;;;;;;110.00;42.70;;;;;;;-1.68;68.14;97377.64;1852141;77;25784;-88
2021/03/23 01:11:15;;;;;;;111.92;45.43;;;;;;;-1.64;68.13;97380.38;1852113;77;25761;-85
2021/03/23 01:13:43;;;;;;;108.05;42.30;;;;;;;-1.61;68.14;97385.41;1851884;77;25726;-86
2021/03/23 01:16:10;;;;;;;103.92;43.52;;;;;;;-1.66;68.17;97373.89;1852105;77;25828;-85
2021/03/23 01:18:37;;;;;;;97.00;40.05;;;;;;;-1.70;68.21;97372.99;1851990;77;28445;-85
2021/03/23 01:21:06;;;;;;;101.50;41.80;;;;;;;-1.69;68.24;97370.18;1851794;77;25684;-85
2021/03/23 01:23:34;;;;;;;100.78;41.25;;;;;;;-1.70;68.25;97372.99;1851964;77;25704;-84
2021/03/23 01:26:01;;;;;;;94.37;41.30;;;;;;;-1.70;68.30;97374.31;1844853;77;26458;-86
2021/03/23 01:28:29;;;;;;;104.75;42.08;;;;;;;-1.68;68.36;97378.48;1836228;77;25805;-85
2021/03/23 01:30:56;;;;;;;97.42;40.55;;;;;;;-1.66;68.35;97377.02;1828671;78;28444;-85
2021/03/23 01:33:23;;;;;;;94.90;38.05;;;;;;;-1.64;68.34;97380.38;1828502;78;25646;-85
2021/03/23 01:35:52;;;;;;;103.47;42.13;;;;;;;-1.72;68.34;97373.61;1828612;78;25489;-85
2021/03/23 01:38:19;;;;;;;104.85;41.73;;;;;;;-1.72;68.49;97373.61;1828659;77;26438;-85
2021/03/23 01:40:48;;;;;;;110.48;44.65;;;;;;;-1.67;68.65;97380.16;1828638;77;25681;-85
2021/03/23 01:43:29;;;;;;;97.33;41.23;;;;;;;-1.66;68.61;97381.83;1828655;77;27549;-84
2021/03/23 01:46:00;;;;;;;92.45;40.92;;;;;;;-1.64;68.62;97381.20;1828415;78;25737;-86
2021/03/23 01:48:33;;;;;;;96.90;40.20;;;;;;;-1.62;68.55;97375.30;1828581;76;25742;-87
2021/03/23 01:51:08;;;;;;;96.75;44.73;;;;;;;-1.61;68.53;97379.63;1845738;77;25788;-85
2021/03/23 01:53:44;;;;;;;95.35;42.98;;;;;;;-1.59;68.61;97379.49;1828961;77;25943;-84
2021/03/23 01:56:14;;;;;;;103.70;42.33;;;;;;;-1.55;68.70;97380.38;1828597;77;28464;-85
2021/03/23 01:58:46;;;;;;;104.65;42.70;;;;;;;-1.56;68.75;97387.13;1828474;77;25284;-86
2021/03/23 02:01:17;;;;;;;96.85;42.70;;;;;;;-1.59;68.71;97384.78;1838654;77;25800;-85
2021/03/23 02:03:46;;;;;;;106.85;43.50;;;;;;;-1.60;68.83;97380.45;1852014;77;26398;-85
2021/03/23 02:06:43;;;;;;;94.67;41.45;;;;;;;-1.61;68.88;97372.16;1845138;77;25872;-84
2021/03/23 02:09:16;;;;;;;100.42;43.28;;;;;;;-1.58;68.95;97374.55;1842932;77;27504;-84
2021/03/23 02:11:50;;;;;;;90.40;41.10;;;;;;;-1.63;68.88;97372.78;1842934;77;25803;-86
2021/03/23 02:14:21;;;;;;;94.65;40.28;;;;;;;-1.63;68.98;97372.78;1842884;77;25677;-85
2021/03/23 02:16:48;;;;;;;86.20;39.45;;;;;;;-1.60;69.09;97368.55;1843049;77;25732;-85
2021/03/23 02:19:22;;;;;;;80.50;36.13;;;;;;;-1.64;69.08;97375.08;1843197;77;25745;-85
2021/03/23 02:21:50;;;;;;;81.92;37.20;;;;;;;-1.72;69.13;97371.80;1843067;77;28409;-85
2021/03/23 02:24:18;;;;;;;71.00;33.75;;;;;;;-1.73;69.19;97371.93;1842853;77;25828;-86
2021/03/23 02:26:45;;;;;;;79.03;34.00;;;;;;;-1.79;69.34;97369.81;1843033;77;25816;-88
2021/03/23 02:29:17;;;;;;;82.55;36.25;;;;;;;-1.82;69.40;97369.14;1809849;79;26416;-85
2021/03/23 02:31:50;;;;;;;81.78;35.50;;;;;;;-1.80;69.40;97368.97;1810102;79;25795;-85
2021/03/23 02:34:22;;;;;;;77.87;36.53;;;;;;;-1.78;69.48;97377.63;1804075;77;26747;-85
2021/03/23 02:36:51;;;;;;;83.37;36.85;;;;;;;-1.79;69.52;97375.11;1787702;78;25685;-84
2021/03/23 02:39:28;;;;;;;78.12;34.23;;;;;;;-1.76;69.62;97373.52;1818029;77;25818;-86
2021/03/23 02:41:56;;;;;;;85.12;33.88;;;;;;;-1.76;69.60;97372.20;1842945;77;25798;-85
2021/03/23 02:44:25;;;;;;;85.30;37.50;;;;;;;-1.74;69.59;97378.20;1842922;77;25267;-85
2021/03/23 02:46:53;;;;;;;78.47;35.38;;;;;;;-1.73;69.56;97378.06;1842888;77;27476;-86
2021/03/23 02:49:20;;;;;;;74.22;32.58;;;;;;;-1.69;69.57;97379.44;1822127;77;26192;-85
2021/03/23 02:51:51;;;;;;;83.62;36.38;;;;;;;-1.70;69.52;97375.64;1833638;77;25291;-84
2021/03/23 02:54:18;;;;;;;73.95;35.00;;;;;;;-1.71;69.64;97377.93;1819876;78;25693;-85
2021/03/23 02:56:45;;;;;;;77.47;33.18;;;;;;;-1.69;69.68;97375.99;1819945;78;25619;-85
2021/03/23 02:59:12;;;;;;;71.70;34.10;;;;;;;-1.72;69.71;97373.13;1819806;77;27482;-85
2021/03/23 03:01:40;;;;;;;79.55;34.27;;;;;;;-1.76;69.72;97372.20;1823386;77;25755;-85
2021/03/23 03:04:08;;;;;;;73.75;33.70;;;;;;;-1.75;69.75;97373.39;1819791;78;25729;-85
2021/03/23 03:06:35;;;;;;;75.60;34.38;;;;;;;-1.74;69.83;97375.55;1830810;77;26522;-84
2021/03/23 03:09:03;;;;;;;70.52;33.20;;;;;;;-1.70;69.89;97379.61;1827156;77;26191;-85
2021/03/23 03:11:31;;;;;;;73.62;33.35;;;;;;;-1.70;69.84;97379.13;1819833;77;27464;-85
2021/03/23 03:13:58;;;;;;;76.28;35.30;;;;;;;-1.74;69.91;97376.39;1819778;78;25761;-85
2021/03/23 03:16:26;;;;;;;78.33;35.78;;;;;;;-1.76;69.97;97375.68;1830004;77;25748;-87
2021/03/23 03:18:53;;;;;;;83.35;37.58;;;;;;;-1.70;70.10;97372.51;1842879;77;26455;-84
2021/03/23 03:21:20;;;;;;;84.32;38.92;;;;;;;-1.65;70.07;97365.46;1842937;77;26250;-85
2021/03/23 03:23:48;;;;;;;82.85;37.45;;;;;;;-1.63;70.06;97366.17;1842782;77;27439;-85
2021/03/23 03:26:15;;;;;;;85.67;37.73;;;;;;;-1.63;70.03;97370.14;1842681;77;25721;-84
2021/03/23 03:28:49;;;;;;;94.30;39.05;;;;;;;-1.64;70.07;97368.46;1842874;77;25832;-85
2021/03/23 03:31:12;;;;;;;78.47;37.35;;;;;;;-1.66;70.08;97363.30;1841872;77;25712;-84
2021/03/23 03:33:40;;;;;;;80.40;37.60;;;;;;;-1.63;70.10;97355.58;1843067;77;25749;-89
2021/03/23 03:36:07;;;;;;;74.60;36.93;;;;;;;-1.61;70.11;97352.31;1843157;77;28520;-84
2021/03/23 03:38:34;;;;;;;84.87;36.33;;;;;;;-1.64;70.12;97350.77;1843014;77;25764;-86
2021/03/23 03:41:02;;;;;;;77.37;35.48;;;;;;;-1.62;70.18;97350.64;1843052;77;25702;-85
2021/03/23 03:43:31;;;;;;;79.47;34.58;;;;;;;-1.63;70.16;97348.97;1822678;77;26740;-85
2021/03/23 03:45:59;;;;;;;80.30;36.48;;;;;;;-1.71;70.20;97343.53;1819842;77;25768;-85
2021/03/23 03:48:27;;;;;;;73.62;35.17;;;;;;;-1.72;70.28;97343.17;1819794;78;27543;-85
2021/03/23 03:50:55;;;;;;;71.60;35.35;;;;;;;-1.76;70.27;97347.89;1819744;78;25798;-84
2021/03/23 03:53:23;;;;;;;76.10;33.30;;;;;;;-1.74;70.36;97350.41;1819931;77;26459;-84
2021/03/23 03:55:53;;;;;;;69.82;32.53;;;;;;;-1.72;70.44;97351.11;1819879;77;25654;-85
2021/03/23 03:58:20;;;;;;;72.85;34.03;;;;;;;-1.69;70.40;97349.53;1819932;78;25903;-84
2021/03/23 04:00:48;;;;;;;66.53;33.42;;;;;;;-1.65;70.42;97357.52;1819796;77;27558;-85
2021/03/23 04:03:24;;;;;;;76.97;34.13;;;;;;;-1.64;70.47;97347.28;1819749;77;26384;-86
2021/03/23 04:05:53;;;;;;;71.05;32.67;;;;;;;-1.65;70.48;97356.20;1832071;76;25795;-84
2021/03/23 04:08:25;;;;;;;71.80;33.48;;;;;;;-1.68;70.55;97352.49;1801104;77;25818;-85
2021/03/23 04:10:53;;;;;;;;;;;;;;;-1.70;70.51;97361.08;1861176;77;25709;-85
2021/03/23 04:13:21;;;;;;;74.62;33.88;;;;;;;-1.65;70.66;97357.52;1858317;77;27546;-84
2021/03/23 04:15:50;;;;;;;83.27;37.42;;;;;;;-1.67;70.52;97350.20;1858298;77;25759;-85
2021/03/23 04:18:22;;;;;;;81.05;35.55;;;;;;;-1.69;70.53;97349.01;1858340;77;25610;-84
2021/03/23 04:20:51;;;;;;;81.55;35.63;;;;;;;-1.68;70.55;97348.52;1858509;77;25716;-84
2021/03/23 04:23:27;;;;;;;75.78;35.55;;;;;;;-1.70;70.58;97348.69;1858379;77;25819;-85
2021/03/23 04:25:55;;;;;;;88.82;38.55;;;;;;;-1.77;70.54;97355.97;1858249;77;28490;-86
2021/03/23 04:28:23;;;;;;;81.28;38.90;;;;;;;-1.79;70.65;97353.45;1858211;77;25759;-85
2021/03/23 04:30:50;;;;;;;88.67;39.48;;;;;;;-1.77;70.82;97358.61;1858275;77;25791;-85
2021/03/23 04:33:22;;;;;;;100.15;45.12;;;;;;;-1.77;70.81;97359.94;1858229;77;25841;-85
2021/03/23 04:36:00;;;;;;;105.25;48.05;;;;;;;-1.82;70.90;97355.91;1858519;77;25862;-85
2021/03/23 04:38:33;;;;;;;114.67;49.90;;;;;;;-1.83;70.98;97357.36;1858356;77;28502;-85
2021/03/23 04:41:05;;;;;;;132.72;53.65;;;;;;;-1.88;71.09;97363.05;1858321;77;25678;-86
2021/03/23 04:43:40;;;;;;;138.82;54.03;;;;;;;-1.89;71.13;97367.98;1858537;77;25772;-85
2021/03/23 04:46:08;;;;;;;133.47;55.35;;;;;;;-1.89;71.25;97367.14;1858265;77;25559;-85
2021/03/23 04:48:36;;;;;;;112.85;51.37;;;;;;;-1.83;71.27;97367.46;1858233;77;26588;-87
2021/03/23 04:51:10;;;;;;;109.40;49.40;;;;;;;-1.77;71.26;97367.39;1858221;77;27480;-85
2021/03/23 04:53:39;;;;;;;115.25;48.23;;;;;;;-1.70;71.22;97371.67;1858324;77;25743;-86
2021/03/23 04:56:10;;;;;;;115.17;47.20;;;;;;;-1.67;71.22;97366.08;1858297;77;25792;-86
2021/03/23 04:58:37;;;;;;;136.20;53.45;;;;;;;-1.64;71.22;97368.46;1857212;77;25763;-88
2021/03/23 05:01:04;;;;;;;168.93;67.12;;;;;;;-1.57;71.18;97377.55;1858466;77;26320;-88
2021/03/23 05:03:34;;;;;;;163.92;63.83;;;;;;;-1.57;71.12;97373.06;1858377;77;27636;-84
2021/03/23 05:06:07;;;;;;;200.13;69.82;;;;;;;-1.58;71.13;97371.91;1854054;77;25842;-85
2021/03/23 05:08:37;;;;;;;229.90;76.75;;;;;;;-1.59;71.14;97371.55;1838508;77;25820;-88
2021/03/23 05:11:07;;;;;;;197.37;69.53;;;;;;;-1.56;71.13;97377.88;1820962;77;26443;-87
2021/03/23 05:13:34;;;;;;;183.10;68.17;;;;;;;-1.56;71.11;97377.88;1822105;77;25833;-86
2021/03/23 05:16:02;;;;;;;161.47;59.95;;;;;;;-1.55;71.16;97373.77;1819855;78;27496;-86
2021/03/23 05:18:30;;;;;;;145.00;57.78;;;;;;;-1.52;71.19;97366.05;1819872;78;26275;-87
2021/03/23 05:20:57;;;;;;;162.50;61.55;;;;;;;-1.50;71.21;97372.05;1819896;78;25714;-86
2021/03/23 05:23:25;;;;;;;195.10;69.45;;;;;;;-1.45;71.28;97379.10;1820298;77;25683;-87
2021/03/23 05:25:53;;;;;;;192.15;72.85;;;;;;;-1.40;71.23;97380.83;1843073;77;26137;-86
2021/03/23 05:28:21;;;;;;;173.65;69.12;;;;;;;-1.37;71.20;97371.30;1842951;77;26821;-85
2021/03/23 05:30:49;;;;;;;174.15;68.28;;;;;;;-1.33;71.26;97374.02;1843045;77;26196;-87
2021/03/23 05:33:18;;;;;;;173.35;64.60;;;;;;;-1.29;71.23;97370.59;1843069;77;26310;-87
2021/03/23 05:35:45;;;;;;;164.07;63.70;;;;;;;-1.26;71.21;97371.16;1843014;77;25631;-86
2021/03/23 05:38:12;;;;;;;170.65;66.20;;;;;;;-1.23;71.27;97372.22;1843098;77;25710;-88
2021/03/23 05:40:57;;;;;;;173.07;68.97;;;;;;;-1.21;71.24;97370.75;1843068;77;27732;-86
2021/03/23 05:43:47;;;;;;;155.00;63.52;;;;;;;-1.16;71.22;97373.31;1842962;77;25690;-86
2021/03/23 05:46:34;;;;;;;136.20;56.35;;;;;;;-1.10;71.19;97377.23;1812236;79;25750;-85
2021/03/23 05:49:13;;;;;;;122.65;50.88;;;;;;;-1.04;71.17;97375.82;1813674;78;25852;-86
2021/03/23 05:51:58;;;;;;;115.67;50.48;;;;;;;-1.01;71.18;97375.06;1811112;79;25809;-87
2021/03/23 05:54:36;;;;;;;140.20;60.10;;;;;;;-0.97;71.16;97379.12;1813639;78;27492;-85
2021/03/23 05:57:09;;;;;;;122.15;48.65;;;;;;;-0.92;71.23;97381.33;1813639;78;25735;-86
2021/03/23 05:59:54;;;;;;;173.28;71.47;;;;;;;-0.85;71.19;97378.48;1813075;78;25710;-86
2021/03/23 06:02:29;;;;;;;217.50;85.12;;;;;;;-0.80;71.20;97382.84;1813636;79;25699;-85
2021/03/23 06:05:45;;;;;;;206.75;82.65;;;;;;;-0.77;71.15;97381.25;1813671;78;25734;-87
2021/03/23 06:08:30;;;;;;;189.52;75.70;;;;;;;-0.75;71.14;97385.92;1823706;77;27561;-86
2021/03/23 06:11:44;;;;;;;151.00;66.45;;;;;;;-0.71;71.09;97391.27;1842958;77;26096;-87
2021/03/23 06:14:36;;;;;;;136.37;58.98;;;;;;;-0.66;71.19;97388.20;1809611;79;25709;-86
2021/03/23 06:17:30;;;;;;;156.87;67.92;;;;;;;-0.63;71.19;97394.56;1809791;79;26528;-85
2021/03/23 06:20:24;;;;;;;154.30;70.03;;;;;;;-0.56;71.13;97388.53;1827432;77;25820;-86
2021/03/23 06:23:17;;;;;;;150.93;70.95;;;;;;;-0.49;71.03;97385.67;1842974;77;27495;-86
2021/03/23 06:26:09;;;;;;;147.65;68.75;;;;;;;-0.44;70.88;97392.70;1843066;77;25728;-89
2021/03/23 06:29:02;;;;;;;232.65;88.87;;;;;;;-0.36;70.81;97384.01;1843103;77;25295;-85
2021/03/23 06:31:44;;;;;;;232.25;93.47;;;;;;;-0.28;70.87;97384.63;1791498;78;26460;-85
2021/03/23 06:34:21;;;;;;;221.87;86.63;;;;;;;-0.27;70.90;97388.96;1839899;76;25708;-85
2021/03/23 06:36:51;;;;;;;241.70;95.50;;;;;;;-0.27;70.83;97391.61;1842906;77;27554;-84
2021/03/23 06:39:20;;;;;;;197.20;79.62;;;;;;;-0.21;70.91;97392.34;1842887;77;26358;-84
2021/03/23 06:41:59;;;;;;;253.27;91.55;;;;;;;-0.14;70.91;97393.45;1808350;77;25828;-84
2021/03/23 06:44:39;;;;;;;187.55;77.00;;;;;;;-0.06;70.91;97397.54;1842935;77;25729;-84
2021/03/23 06:47:37;;;;;;;149.80;68.75;;;;;;;0.01;70.82;97397.28;1842932;77;25834;-85
2021/03/23 06:53:22;;;;;;;124.55;56.83;;;;;;;0.27;70.70;97394.31;1873427;76;34733;-84
2021/03/23 06:55:50;;;;;;;161.97;69.90;;;;;;;0.27;70.63;97393.47;1852669;77;25925;-84
2021/03/23 06:58:32;;;;;;;167.40;74.22;;;;;;;0.28;70.52;97394.66;1852784;77;27481;-84
2021/03/23 07:01:21;;;;;;;157.27;70.00;;;;;;;0.38;70.62;97389.78;1852973;77;25672;-84
2021/03/23 07:03:59;;;;;;;142.65;64.95;;;;;;;0.49;70.62;97394.39;1852672;77;25855;-85
2021/03/23 07:06:31;;;;;;;140.18;64.65;;;;;;;0.60;70.49;97400.02;1842299;77;25732;-84
2021/03/23 07:09:12;;;;;;;103.35;47.13;;;;;;;0.72;70.38;97401.48;1852910;76;25687;-84
2021/03/23 07:11:52;;;;;;;129.83;60.30;;;;;;;0.81;70.37;97396.58;1844183;77;28258;-84
2021/03/23 07:14:42;;;;;;;139.00;63.78;;;;;;;0.88;70.35;97394.98;1819553;77;25800;-85
2021/03/23 07:17:21;;;;;;;121.85;59.85;;;;;;;0.96;70.43;97392.42;1820713;77;25801;-85
2021/03/23 07:20:10;;;;;;;121.05;58.48;;;;;;;1.12;70.45;97396.19;1852698;77;26226;-84
2021/03/23 07:22:48;;;;;;;84.83;46.70;;;;;;;1.18;70.29;97375.66;1852801;76;25790;-84
2021/03/23 07:25:39;;;;;;;90.72;45.95;;;;;;;1.41;69.96;97388.31;1852778;77;27527;-86
2021/03/23 07:28:38;;;;;;;85.97;44.85;;;;;;;1.54;69.35;97389.23;1852648;77;26110;-85
2021/03/23 07:31:31;;;;;;;75.75;39.15;;;;;;;1.67;68.94;97387.00;1852510;77;25780;-85
2021/03/23 07:34:12;;;;;;;70.05;36.53;;;;;;;1.80;68.70;97386.09;1852561;77;25668;-85
2021/03/23 07:36:51;;;;;;;74.12;37.17;;;;;;;1.92;68.15;97386.66;1852627;77;25835;-85
2021/03/23 07:39:35;;;;;;;67.80;34.20;;;;;;;2.06;68.04;97386.54;1828534;77;27501;-84
2021/03/23 07:42:27;;;;;;;74.65;34.88;;;;;;;2.20;67.69;97381.95;1847182;77;25392;-85
2021/03/23 07:45:12;;;;;;;64.77;31.20;;;;;;;2.29;67.25;97377.02;1852723;77;25775;-85
2021/03/23 07:48:10;;;;;;;63.10;30.82;;;;;;;2.42;66.88;97382.70;1845877;77;25848;-84
2021/03/23 08:09:24;;;;;;;35.25;18.12;;;;;;;3.70;65.24;97363.52;1850380;77;35247;-83
2021/03/23 08:12:05;;;;;;;34.03;16.60;;;;;;;3.66;64.06;97363.52;1822330;78;26231;-84
2021/03/23 08:15:08;;;;;;;32.40;17.05;;;;;;;3.67;63.68;97363.84;1822436;78;27663;-83
2021/03/23 08:18:09;;;;;;;33.25;17.95;;;;;;;3.67;63.27;97357.67;1822282;78;25637;-83
2021/03/23 08:24:05;;;;;;;39.55;19.67;;;;;;;3.89;62.90;97355.13;1849293;76;34786;-82
2021/03/23 08:27:07;;;;;;;44.83;22.35;;;;;;;3.86;62.47;97355.48;1820203;78;25701;-83
2021/03/23 08:30:09;;;;;;;64.55;27.65;;;;;;;3.83;62.31;97358.48;1820187;78;27495;-82
2021/03/23 08:33:06;;;;;;;42.23;18.67;;;;;;;3.84;62.18;97356.16;1819974;78;25699;-84
2021/03/23 08:35:54;;;;;;;35.20;18.00;;;;;;;3.92;62.12;97350.78;1817176;78;25732;-84
2021/03/23 08:38:30;;;;;;;36.63;18.50;;;;;;;4.04;61.94;97345.08;1767753;80;25669;-84
2021/03/23 08:41:30;;;;;;;35.35;18.95;;;;;;;4.16;61.71;97336.52;1752674;80;25723;-84
2021/03/23 08:44:00;;;;;;;38.92;17.87;;;;;;;4.27;61.46;97339.31;1722783;82;27507;-84
2021/03/23 08:46:34;;;;;;;41.35;19.02;;;;;;;4.43;61.50;97338.41;1720664;83;25391;-83
2021/03/23 08:49:06;;;;;;;36.50;17.27;;;;;;;4.54;61.39;97338.85;1753114;81;25789;-85
2021/03/23 08:51:42;;;;;;;35.00;17.00;;;;;;;4.57;61.30;97338.51;1724779;82;26345;-83
2021/03/23 08:54:09;;;;;;;33.25;18.27;;;;;;;4.63;60.93;97343.14;1724532;81;25751;-82
2021/03/23 08:56:51;;;;;;;36.28;18.52;;;;;;;4.73;60.82;97340.23;1724478;82;27508;-83
2021/03/23 08:59:39;;;;;;;35.28;18.90;;;;;;;4.79;60.84;97348.07;1739857;81;26551;-84
2021/03/23 09:02:16;;;;;;;24.47;14.20;;;;;;;4.84;60.81;97349.70;1740502;80;25325;-83
2021/03/23 09:04:53;;;;;;;24.52;12.95;;;;;;;4.74;60.35;97348.59;1754602;81;25787;-83
2021/03/23 09:07:39;;;;;;;18.82;8.75;;;;;;;4.73;59.92;97352.77;1850017;77;34792;-82
2021/03/23 09:10:36;;;;;;;20.45;9.10;;;;;;;4.54;59.62;97354.06;1834100;78;25680;-81
2021/03/23 09:13:04;;;;;;;21.17;10.82;;;;;;;4.30;59.66;97357.67;1826177;78;28889;-82
2021/03/23 09:15:36;;;;;;;14.00;8.68;;;;;;;4.27;59.83;97364.69;1833859;77;25714;-81
2021/03/23 09:18:18;;;;;;;21.02;9.48;;;;;;;4.29;59.70;97364.02;1801307;77;26219;-80
2021/03/23 09:20:51;;;;;;;19.15;9.00;;;;;;;4.29;59.53;97360.02;1801200;79;25733;-83
2021/03/23 09:23:27;;;;;;;18.42;8.95;;;;;;;4.26;59.56;97364.36;1801248;78;25744;-83
2021/03/23 09:26:01;;;;;;;26.25;13.15;;;;;;;4.18;59.28;97359.89;1801185;79;28648;-82
2021/03/23 09:28:39;;;;;;;20.82;10.95;;;;;;;4.04;59.32;97362.44;1801144;79;25752;-81
2021/03/23 09:31:21;;;;;;;38.85;21.82;;;;;;;3.98;59.45;97360.77;1801206;79;25713;-81
2021/03/23 09:33:56;;;;;;;17.17;8.73;;;;;;;4.02;59.51;97362.60;1801491;79;26354;-81
2021/03/23 09:39:26;;;;;;;22.13;10.80;;;;;;;3.94;59.44;97356.80;1873438;76;34771;-81
2021/03/23 09:42:21;;;;;;;23.12;11.80;;;;;;;3.88;59.57;97361.47;1852168;76;25868;-81
2021/03/23 09:45:29;;;;;;;23.10;12.03;;;;;;;3.89;59.43;97355.63;1852797;77;27558;-81
2021/03/23 09:48:16;;;;;;;21.82;10.82;;;;;;;3.94;59.44;97354.63;1852510;77;25924;-82
2021/03/23 09:50:58;;;;;;;21.65;11.22;;;;;;;3.88;59.58;97350.78;1852723;77;25697;-81
2021/03/23 09:53:38;;;;;;;23.20;10.53;;;;;;;3.88;59.75;97355.29;1852675;77;25731;-81
2021/03/23 09:56:18;;;;;;;23.40;11.45;;;;;;;3.85;59.59;97348.98;1852692;77;25798;-85
2021/03/23 09:58:46;;;;;;;21.85;11.08;;;;;;;3.88;59.74;97351.28;1837387;77;27453;-84
2021/03/23 10:01:23;;;;;;;25.32;12.33;;;;;;;3.88;59.75;97344.61;1847686;77;26120;-85
2021/03/23 10:03:53;;;;;;;22.45;11.38;;;;;;;3.85;60.00;97352.48;1823078;77;25795;-84
2021/03/23 10:06:29;;;;;;;21.60;10.90;;;;;;;3.84;60.12;97345.98;1845708;77;25752;-83
2021/03/23 10:09:09;;;;;;;24.05;10.72;;;;;;;3.85;60.27;97343.14;1852602;77;25868;-82
2021/03/23 10:11:44;;;;;;;21.33;10.40;;;;;;;3.90;60.23;97344.77;1852636;76;27479;-82
2021/03/23 10:14:32;;;;;;;25.27;11.03;;;;;;;3.94;60.16;97342.11;1852548;77;25734;-85
2021/03/23 10:17:28;;;;;;;18.37;9.65;;;;;;;3.89;60.23;97335.59;1724767;83;27135;-81
2021/03/23 10:20:00;;;;;;;31.62;13.93;;;;;;;4.02;60.20;97348.41;1724882;83;26063;-82
2021/03/23 10:25:17;;;;;;;46.63;21.70;;;;;;;3.90;61.08;97359.97;1886893;76;25683;-84
2021/03/23 10:27:45;;;;;;;43.52;21.35;;;;;;;3.84;61.44;97370.84;1857832;77;25973;-85
2021/03/23 10:30:36;;;;;;;34.27;17.80;;;;;;;3.83;61.55;97362.50;1857841;77;27486;-85
2021/03/23 10:33:24;;;;;;;29.60;15.58;;;;;;;3.81;61.70;97367.17;1857739;77;26188;-84
2021/03/23 10:36:02;;;;;;;23.80;12.93;;;;;;;3.80;61.94;97364.16;1857315;77;25636;-83
2021/03/23 10:38:36;;;;;;;26.48;13.60;;;;;;;3.87;62.18;97365.64;1857824;77;25314;-83
2021/03/23 10:41:22;;;;;;;28.75;12.65;;;;;;;3.88;62.20;97372.14;1857823;77;25728;-85
2021/03/23 10:43:53;;;;;;;25.85;14.03;;;;;;;3.84;62.37;97372.67;1857697;77;27462;-84
2021/03/23 10:46:44;;;;;;;31.50;13.80;;;;;;;3.81;62.79;97368.50;1857668;77;25719;-81
2021/03/23 10:49:16;;;;;;;25.30;13.25;;;;;;;3.88;63.09;97372.65;1857607;77;25379;-81
2021/03/23 10:51:48;;;;;;;26.80;13.90;;;;;;;4.02;62.96;97366.61;1850395;77;25867;-81
2021/03/23 10:57:20;;;;;;;29.63;14.75;;;;;;;4.12;62.94;97362.41;1873386;76;36095;-82
2021/03/23 10:59:48;;;;;;;29.05;14.30;;;;;;;4.17;63.01;97365.40;1821720;78;25792;-85
2021/03/23 11:02:21;;;;;;;26.35;12.68;;;;;;;4.28;62.86;97365.86;1827693;77;27476;-84
2021/03/23 11:05:15;;;;;;;23.25;12.37;;;;;;;4.36;62.79;97359.64;1852519;77;26511;-85
2021/03/23 11:07:58;;;;;;;32.75;17.40;;;;;;;4.35;62.83;97355.30;1848144;77;25851;-84
2021/03/23 11:10:31;;;;;;;26.80;13.85;;;;;;;4.27;62.91;97359.34;1819163;78;25681;-82
2021/03/23 11:12:59;;;;;;;28.85;13.90;;;;;;;4.31;62.86;97356.17;1819070;78;25740;-82
2021/03/23 11:15:31;;;;;;;27.60;13.45;;;;;;;4.40;62.94;97358.30;1819073;78;27559;-80
2021/03/23 11:17:59;;;;;;;32.50;14.15;;;;;;;4.45;62.77;97355.11;1818916;78;25736;-82
2021/03/23 11:20:36;;;;;;;33.55;15.50;;;;;;;4.47;62.84;97359.78;1819049;78;25322;-84
2021/03/23 11:23:17;;;;;;;30.88;14.20;;;;;;;4.41;62.96;97353.78;1819126;78;26073;-82
2021/03/23 11:26:01;;;;;;;27.37;13.88;;;;;;;4.62;63.44;97344.14;1832869;78;25649;-81
2021/03/23 11:28:30;;;;;;;27.35;14.80;;;;;;;4.76;63.24;97346.58;1786125;79;25814;-83
2021/03/23 11:31:01;;;;;;;31.15;15.93;;;;;;;4.83;63.07;97345.38;1786091;80;27422;-80
2021/03/23 11:33:31;;;;;;;30.52;14.25;;;;;;;4.83;62.90;97338.70;1785982;80;25663;-83
2021/03/23 11:35:59;;;;;;;26.17;14.15;;;;;;;4.90;62.81;97344.48;1785514;80;25790;-80
2021/03/23 11:38:27;;;;;;;32.60;14.65;;;;;;;4.95;62.65;97338.08;1786139;80;26256;-80
2021/03/23 11:40:58;;;;;;;32.67;15.43;;;;;;;4.97;62.45;97347.27;1786097;80;25809;-83
2021/03/23 11:43:45;;;;;;;25.48;15.13;;;;;;;5.01;62.43;97341.91;1786157;79;27690;-82
2021/03/23 11:46:27;;;;;;;28.75;15.88;;;;;;;5.01;62.61;97340.56;1782570;80;26114;-84
2021/03/23 11:49:05;;;;;;;28.57;16.50;;;;;;;5.06;62.31;97340.87;1785509;80;25722;-82
2021/03/23 11:51:29;;;;;;;30.55;15.95;;;;;;;5.12;62.37;97340.15;1784985;80;25697;-80
2021/03/23 11:53:57;;;;;;;31.52;16.25;;;;;;;5.16;62.17;97336.11;1786074;80;26330;-84
2021/03/23 11:56:25;;;;;;;32.08;17.23;;;;;;;5.12;62.23;97341.48;1768619;80;28383;-84
2021/03/23 11:58:53;;;;;;;35.05;17.92;;;;;;;5.13;62.32;97344.49;1779755;80;25731;-81
2021/03/23 12:01:24;;;;;;;34.30;17.05;;;;;;;5.17;62.26;97340.45;1779439;80;25797;-82
2021/03/23 12:03:53;;;;;;;32.67;16.37;;;;;;;5.14;62.21;97344.82;1754927;81;25696;-82
2021/03/23 12:06:45;;;;;;;36.83;17.52;;;;;;;5.10;62.06;97344.84;1774875;80;25778;-83
2021/03/23 12:09:18;;;;;;;38.02;19.12;;;;;;;5.11;62.22;97341.16;1786277;80;27488;-80
2021/03/23 12:11:59;;;;;;;29.92;16.90;;;;;;;5.04;62.22;97337.55;1785968;80;25803;-83
2021/03/23 12:14:49;;;;;;;33.63;17.50;;;;;;;5.10;62.28;97338.66;1786008;80;26369;-88
2021/03/23 12:17:18;;;;;;;35.10;19.73;;;;;;;5.14;62.14;97346.16;1783899;80;26215;-82
2021/03/23 12:19:53;;;;;;;36.77;18.52;;;;;;;5.03;62.17;97338.55;1784907;80;25741;-82
2021/03/23 12:22:22;;;;;;;35.50;18.62;;;;;;;5.06;62.22;97343.05;1786012;79;27502;-82
2021/03/23 12:24:49;;;;;;;34.35;17.92;;;;;;;5.06;62.25;97340.87;1785040;80;25710;-82
2021/03/23 12:27:18;;;;;;;33.40;19.30;;;;;;;5.12;62.49;97336.64;1783534;79;25706;-81